FA64 weather

Montgomery Ranch Airport
Arcadia, Florida, United States

Public forecast

Using degrees Fahrenheit for public forecast. Weather courtesy of forecast.io.

Closest aviation weather report (METAR) to Montgomery Ranch Airport

Closest report is Charlotte County Airport, 23.5 nm (43.5 km) WSW. Retrieved 2020/06/07 05:53 UTC (60 minutes ago):

KPGD 070553Z AUTO 14009KT 10SM CLR 26/26 A2994 RMK AO2 RAB12E36 SLP136 P0001 60012 T02610256 10278 20261 58007

Closest aviation forecast (TAF) to Montgomery Ranch Airport

Closest forecast is Charlotte County Airport, 23.5 nm (43.5 km) WSW. Retrieved 2020/06/07 06:33 UTC (20 minutes ago):

TAF KPGD 070531Z 0706/0806 15007KT P6SM VCSH SCT020 OVC120 TEMPO 0706/0707 5SM SHRA BKN020 FM071400 18014G20KT P6SM VCTS SCT020CB OVC120 FM080200 12007KT P6SM VCSH SCT020 OVC100